sensor_id;sensor_type;location;lat;lon;timestamp;P1;durP1;ratioP1;P2;durP2;ratioP2
4563;SDS011;2294;51.818;8.484;2023-04-15T00:02:14;9.50;;;4.40;;
4563;SDS011;2294;51.818;8.484;2023-04-15T00:04:42;4.50;;;3.97;;
4563;SDS011;2294;51.818;8.484;2023-04-15T00:07:09;7.80;;;3.77;;
4563;SDS011;2294;51.818;8.484;2023-04-15T00:09:38;5.53;;;4.03;;
4563;SDS011;2294;51.818;8.484;2023-04-15T00:12:06;5.63;;;4.20;;
4563;SDS011;2294;51.818;8.484;2023-04-15T00:14:34;8.27;;;4.03;;
4563;SDS011;2294;51.818;8.484;2023-04-15T00:17:01;5.47;;;4.67;;
4563;SDS011;2294;51.818;8.484;2023-04-15T00:19:28;7.63;;;3.83;;
4563;SDS011;2294;51.818;8.484;2023-04-15T00:21:55;5.90;;;4.20;;
4563;SDS011;2294;51.818;8.484;2023-04-15T00:24:22;5.70;;;4.57;;
4563;SDS011;2294;51.818;8.484;2023-04-15T00:26:50;13.30;;;4.53;;
4563;SDS011;2294;51.818;8.484;2023-04-15T00:29:17;4.03;;;3.63;;
4563;SDS011;2294;51.818;8.484;2023-04-15T00:31:44;10.90;;;4.20;;
4563;SDS011;2294;51.818;8.484;2023-04-15T00:34:11;6.00;;;4.13;;
4563;SDS011;2294;51.818;8.484;2023-04-15T00:36:38;4.87;;;3.87;;
4563;SDS011;2294;51.818;8.484;2023-04-15T00:39:05;6.17;;;4.47;;
4563;SDS011;2294;51.818;8.484;2023-04-15T00:41:32;5.77;;;4.70;;
4563;SDS011;2294;51.818;8.484;2023-04-15T00:44:04;10.37;;;4.00;;
4563;SDS011;2294;51.818;8.484;2023-04-15T00:46:32;7.53;;;3.87;;
4563;SDS011;2294;51.818;8.484;2023-04-15T00:49:01;5.03;;;3.87;;
4563;SDS011;2294;51.818;8.484;2023-04-15T00:51:30;4.60;;;4.00;;
4563;SDS011;2294;51.818;8.484;2023-04-15T00:54:00;5.53;;;4.03;;
4563;SDS011;2294;51.818;8.484;2023-04-15T00:56:27;5.90;;;4.00;;
4563;SDS011;2294;51.818;8.484;2023-04-15T00:58:55;5.90;;;4.60;;
4563;SDS011;2294;51.818;8.484;2023-04-15T01:01:24;8.33;;;4.47;;
4563;SDS011;2294;51.818;8.484;2023-04-15T01:03:51;6.77;;;4.70;;
4563;SDS011;2294;51.818;8.484;2023-04-15T01:06:18;7.00;;;5.53;;
4563;SDS011;2294;51.818;8.484;2023-04-15T01:08:45;4.87;;;3.90;;
4563;SDS011;2294;51.818;8.484;2023-04-15T01:11:12;10.23;;;4.40;;
4563;SDS011;2294;51.818;8.484;2023-04-15T01:13:40;7.13;;;4.60;;
4563;SDS011;2294;51.818;8.484;2023-04-15T01:16:07;6.33;;;4.50;;
4563;SDS011;2294;51.818;8.484;2023-04-15T01:18:35;9.73;;;4.93;;
4563;SDS011;2294;51.818;8.484;2023-04-15T01:21:03;7.70;;;4.70;;
4563;SDS011;2294;51.818;8.484;2023-04-15T01:23:31;5.90;;;4.40;;
4563;SDS011;2294;51.818;8.484;2023-04-15T01:26:02;5.33;;;4.30;;
4563;SDS011;2294;51.818;8.484;2023-04-15T01:28:30;5.70;;;3.87;;
4563;SDS011;2294;51.818;8.484;2023-04-15T01:31:06;11.93;;;5.10;;
4563;SDS011;2294;51.818;8.484;2023-04-15T01:33:34;6.40;;;4.53;;
4563;SDS011;2294;51.818;8.484;2023-04-15T01:36:02;8.93;;;4.37;;
4563;SDS011;2294;51.818;8.484;2023-04-15T01:38:29;12.83;;;4.03;;
4563;SDS011;2294;51.818;8.484;2023-04-15T01:40:57;6.50;;;4.20;;
4563;SDS011;2294;51.818;8.484;2023-04-15T01:43:26;7.00;;;4.23;;
4563;SDS011;2294;51.818;8.484;2023-04-15T01:45:53;9.20;;;4.90;;
4563;SDS011;2294;51.818;8.484;2023-04-15T01:48:20;5.87;;;4.10;;
4563;SDS011;2294;51.818;8.484;2023-04-15T01:50:47;9.30;;;4.80;;
4563;SDS011;2294;51.818;8.484;2023-04-15T01:53:14;12.40;;;4.90;;
4563;SDS011;2294;51.818;8.484;2023-04-15T01:55:41;7.40;;;4.83;;
4563;SDS011;2294;51.818;8.484;2023-04-15T01:58:08;8.50;;;5.83;;
4563;SDS011;2294;51.818;8.484;2023-04-15T02:00:36;8.50;;;4.47;;
4563;SDS011;2294;51.818;8.484;2023-04-15T02:03:03;6.53;;;4.60;;
4563;SDS011;2294;51.818;8.484;2023-04-15T02:05:30;6.33;;;4.57;;
4563;SDS011;2294;51.818;8.484;2023-04-15T02:07:57;5.87;;;4.37;;
4563;SDS011;2294;51.818;8.484;2023-04-15T02:10:24;9.97;;;5.57;;
4563;SDS011;2294;51.818;8.484;2023-04-15T02:12:51;8.47;;;5.10;;
4563;SDS011;2294;51.818;8.484;2023-04-15T02:15:19;5.33;;;4.70;;
4563;SDS011;2294;51.818;8.484;2023-04-15T02:17:47;7.63;;;5.20;;
4563;SDS011;2294;51.818;8.484;2023-04-15T02:20:15;7.80;;;5.13;;
4563;SDS011;2294;51.818;8.484;2023-04-15T02:22:42;9.10;;;5.37;;
4563;SDS011;2294;51.818;8.484;2023-04-15T02:25:09;9.23;;;6.20;;
4563;SDS011;2294;51.818;8.484;2023-04-15T02:27:36;8.07;;;5.27;;
4563;SDS011;2294;51.818;8.484;2023-04-15T02:30:03;6.50;;;4.93;;
4563;SDS011;2294;51.818;8.484;2023-04-15T02:32:32;7.77;;;5.33;;
4563;SDS011;2294;51.818;8.484;2023-04-15T02:35:02;6.17;;;4.70;;
4563;SDS011;2294;51.818;8.484;2023-04-15T02:37:29;8.20;;;5.53;;
4563;SDS011;2294;51.818;8.484;2023-04-15T02:40:00;8.73;;;5.77;;
4563;SDS011;2294;51.818;8.484;2023-04-15T02:42:29;7.87;;;5.60;;
4563;SDS011;2294;51.818;8.484;2023-04-15T02:44:56;7.27;;;5.97;;
4563;SDS011;2294;51.818;8.484;2023-04-15T02:47:23;9.10;;;6.17;;
4563;SDS011;2294;51.818;8.484;2023-04-15T02:49:50;9.83;;;5.80;;
4563;SDS011;2294;51.818;8.484;2023-04-15T02:52:18;10.83;;;6.40;;
4563;SDS011;2294;51.818;8.484;2023-04-15T02:54:45;9.87;;;6.57;;
4563;SDS011;2294;51.818;8.484;2023-04-15T02:57:12;10.33;;;6.93;;
4563;SDS011;2294;51.818;8.484;2023-04-15T02:59:39;11.00;;;7.07;;
4563;SDS011;2294;51.818;8.484;2023-04-15T03:02:06;10.47;;;6.50;;
4563;SDS011;2294;51.818;8.484;2023-04-15T03:04:33;13.13;;;9.00;;
4563;SDS011;2294;51.818;8.484;2023-04-15T03:07:00;9.30;;;7.10;;
4563;SDS011;2294;51.818;8.484;2023-04-15T03:09:28;11.07;;;7.90;;
4563;SDS011;2294;51.818;8.484;2023-04-15T03:11:55;10.87;;;7.07;;
4563;SDS011;2294;51.818;8.484;2023-04-15T03:14:22;12.20;;;7.60;;
4563;SDS011;2294;51.818;8.484;2023-04-15T03:16:49;9.43;;;6.80;;
4563;SDS011;2294;51.818;8.484;2023-04-15T03:19:16;12.00;;;7.23;;
4563;SDS011;2294;51.818;8.484;2023-04-15T03:21:43;16.57;;;8.13;;
4563;SDS011;2294;51.818;8.484;2023-04-15T03:24:10;10.80;;;6.73;;
4563;SDS011;2294;51.818;8.484;2023-04-15T03:26:38;11.70;;;7.23;;
4563;SDS011;2294;51.818;8.484;2023-04-15T03:29:05;11.93;;;7.07;;
4563;SDS011;2294;51.818;8.484;2023-04-15T03:31:32;10.60;;;6.93;;
4563;SDS011;2294;51.818;8.484;2023-04-15T03:33:59;10.87;;;8.03;;
4563;SDS011;2294;51.818;8.484;2023-04-15T03:36:27;11.87;;;8.00;;
4563;SDS011;2294;51.818;8.484;2023-04-15T03:38:55;13.37;;;8.17;;
4563;SDS011;2294;51.818;8.484;2023-04-15T03:41:22;13.67;;;8.40;;
4563;SDS011;2294;51.818;8.484;2023-04-15T03:43:50;13.87;;;7.30;;
4563;SDS011;2294;51.818;8.484;2023-04-15T03:46:17;11.40;;;7.60;;
4563;SDS011;2294;51.818;8.484;2023-04-15T03:48:45;12.50;;;7.70;;
4563;SDS011;2294;51.818;8.484;2023-04-15T03:51:12;13.77;;;7.70;;
4563;SDS011;2294;51.818;8.484;2023-04-15T03:53:39;13.07;;;7.93;;
4563;SDS011;2294;51.818;8.484;2023-04-15T03:56:06;10.30;;;7.97;;
4563;SDS011;2294;51.818;8.484;2023-04-15T03:58:33;12.80;;;8.07;;
4563;SDS011;2294;51.818;8.484;2023-04-15T04:01:02;17.00;;;8.67;;
4563;SDS011;2294;51.818;8.484;2023-04-15T04:03:28;10.80;;;7.07;;
4563;SDS011;2294;51.818;8.484;2023-04-15T04:05:55;10.67;;;7.13;;
4563;SDS011;2294;51.818;8.484;2023-04-15T04:08:22;11.63;;;7.97;;
4563;SDS011;2294;51.818;8.484;2023-04-15T04:10:49;11.17;;;8.03;;
4563;SDS011;2294;51.818;8.484;2023-04-15T04:13:16;14.37;;;8.10;;
4563;SDS011;2294;51.818;8.484;2023-04-15T04:15:43;12.70;;;7.70;;
4563;SDS011;2294;51.818;8.484;2023-04-15T04:18:11;12.40;;;7.80;;
4563;SDS011;2294;51.818;8.484;2023-04-15T04:20:38;12.77;;;8.07;;
4563;SDS011;2294;51.818;8.484;2023-04-15T04:23:05;14.73;;;8.63;;
4563;SDS011;2294;51.818;8.484;2023-04-15T04:25:32;13.47;;;8.20;;
4563;SDS011;2294;51.818;8.484;2023-04-15T04:27:59;14.33;;;9.37;;
4563;SDS011;2294;51.818;8.484;2023-04-15T04:30:26;14.90;;;8.00;;
4563;SDS011;2294;51.818;8.484;2023-04-15T04:32:53;13.93;;;8.63;;
4563;SDS011;2294;51.818;8.484;2023-04-15T04:35:21;14.63;;;10.00;;
4563;SDS011;2294;51.818;8.484;2023-04-15T04:37:49;14.10;;;8.90;;
4563;SDS011;2294;51.818;8.484;2023-04-15T04:40:16;17.07;;;9.87;;
4563;SDS011;2294;51.818;8.484;2023-04-15T04:42:43;14.90;;;9.73;;
4563;SDS011;2294;51.818;8.484;2023-04-15T04:45:10;19.00;;;10.50;;
4563;SDS011;2294;51.818;8.484;2023-04-15T04:47:37;17.27;;;10.03;;
4563;SDS011;2294;51.818;8.484;2023-04-15T04:50:04;18.37;;;9.77;;
4563;SDS011;2294;51.818;8.484;2023-04-15T04:52:34;15.00;;;9.00;;
4563;SDS011;2294;51.818;8.484;2023-04-15T04:55:02;17.93;;;8.60;;
4563;SDS011;2294;51.818;8.484;2023-04-15T04:57:30;13.90;;;9.83;;
4563;SDS011;2294;51.818;8.484;2023-04-15T04:59:57;13.10;;;9.00;;
4563;SDS011;2294;51.818;8.484;2023-04-15T05:02:24;20.77;;;10.07;;
4563;SDS011;2294;51.818;8.484;2023-04-15T05:04:52;16.20;;;9.27;;
4563;SDS011;2294;51.818;8.484;2023-04-15T05:07:19;27.13;;;9.57;;
4563;SDS011;2294;51.818;8.484;2023-04-15T05:09:47;25.30;;;10.57;;
4563;SDS011;2294;51.818;8.484;2023-04-15T05:12:14;23.20;;;12.20;;
4563;SDS011;2294;51.818;8.484;2023-04-15T05:14:42;20.00;;;10.73;;
4563;SDS011;2294;51.818;8.484;2023-04-15T05:17:10;25.67;;;12.50;;
4563;SDS011;2294;51.818;8.484;2023-04-15T05:19:38;24.30;;;10.97;;
4563;SDS011;2294;51.818;8.484;2023-04-15T05:22:05;35.90;;;14.27;;
4563;SDS011;2294;51.818;8.484;2023-04-15T05:24:32;26.07;;;10.90;;
4563;SDS011;2294;51.818;8.484;2023-04-15T05:27:01;28.30;;;12.30;;
4563;SDS011;2294;51.818;8.484;2023-04-15T05:29:27;22.60;;;12.33;;
4563;SDS011;2294;51.818;8.484;2023-04-15T05:31:54;36.40;;;15.40;;
4563;SDS011;2294;51.818;8.484;2023-04-15T05:34:21;29.80;;;13.07;;
4563;SDS011;2294;51.818;8.484;2023-04-15T05:36:48;21.77;;;11.77;;
4563;SDS011;2294;51.818;8.484;2023-04-15T05:39:16;25.73;;;12.17;;
4563;SDS011;2294;51.818;8.484;2023-04-15T05:41:43;31.37;;;14.27;;
4563;SDS011;2294;51.818;8.484;2023-04-15T05:44:12;22.60;;;12.57;;
4563;SDS011;2294;51.818;8.484;2023-04-15T05:46:38;24.10;;;10.40;;
4563;SDS011;2294;51.818;8.484;2023-04-15T05:49:06;19.50;;;10.60;;
4563;SDS011;2294;51.818;8.484;2023-04-15T05:51:32;19.77;;;11.37;;
4563;SDS011;2294;51.818;8.484;2023-04-15T05:54:00;16.70;;;10.77;;
4563;SDS011;2294;51.818;8.484;2023-04-15T05:56:27;17.77;;;10.90;;
4563;SDS011;2294;51.818;8.484;2023-04-15T05:58:53;22.50;;;10.90;;
4563;SDS011;2294;51.818;8.484;2023-04-15T06:01:22;21.67;;;11.83;;
4563;SDS011;2294;51.818;8.484;2023-04-15T06:03:49;21.53;;;11.60;;
4563;SDS011;2294;51.818;8.484;2023-04-15T06:06:16;19.70;;;11.20;;
4563;SDS011;2294;51.818;8.484;2023-04-15T06:08:43;19.33;;;11.03;;
4563;SDS011;2294;51.818;8.484;2023-04-15T06:11:10;19.43;;;10.20;;
4563;SDS011;2294;51.818;8.484;2023-04-15T06:13:37;20.83;;;12.10;;
4563;SDS011;2294;51.818;8.484;2023-04-15T06:16:04;17.50;;;10.67;;
4563;SDS011;2294;51.818;8.484;2023-04-15T06:18:33;17.77;;;10.83;;
4563;SDS011;2294;51.818;8.484;2023-04-15T06:21:00;24.90;;;11.97;;
4563;SDS011;2294;51.818;8.484;2023-04-15T06:23:27;21.20;;;11.90;;
4563;SDS011;2294;51.818;8.484;2023-04-15T06:25:54;22.17;;;10.77;;
4563;SDS011;2294;51.818;8.484;2023-04-15T06:28:20;18.87;;;10.40;;
4563;SDS011;2294;51.818;8.484;2023-04-15T06:30:47;16.23;;;9.87;;
4563;SDS011;2294;51.818;8.484;2023-04-15T06:33:14;25.20;;;12.43;;
4563;SDS011;2294;51.818;8.484;2023-04-15T06:35:43;13.23;;;9.33;;
4563;SDS011;2294;51.818;8.484;2023-04-15T06:38:10;14.10;;;8.90;;
4563;SDS011;2294;51.818;8.484;2023-04-15T06:40:37;18.13;;;9.60;;
4563;SDS011;2294;51.818;8.484;2023-04-15T06:43:04;21.43;;;12.30;;
4563;SDS011;2294;51.818;8.484;2023-04-15T06:45:32;19.97;;;11.73;;
4563;SDS011;2294;51.818;8.484;2023-04-15T06:47:59;18.37;;;11.27;;
4563;SDS011;2294;51.818;8.484;2023-04-15T06:50:26;20.37;;;12.50;;
4563;SDS011;2294;51.818;8.484;2023-04-15T06:52:54;16.20;;;9.50;;
4563;SDS011;2294;51.818;8.484;2023-04-15T06:55:22;22.27;;;11.80;;
4563;SDS011;2294;51.818;8.484;2023-04-15T06:57:49;22.83;;;11.00;;
4563;SDS011;2294;51.818;8.484;2023-04-15T07:00:16;21.00;;;11.00;;
4563;SDS011;2294;51.818;8.484;2023-04-15T07:02:43;17.60;;;10.00;;
4563;SDS011;2294;51.818;8.484;2023-04-15T07:05:10;27.23;;;12.40;;
4563;SDS011;2294;51.818;8.484;2023-04-15T07:07:37;25.73;;;11.70;;
4563;SDS011;2294;51.818;8.484;2023-04-15T07:10:06;17.53;;;10.27;;
4563;SDS011;2294;51.818;8.484;2023-04-15T07:12:34;16.53;;;10.20;;
4563;SDS011;2294;51.818;8.484;2023-04-15T07:15:01;20.23;;;9.87;;
4563;SDS011;2294;51.818;8.484;2023-04-15T07:17:27;17.17;;;10.60;;
4563;SDS011;2294;51.818;8.484;2023-04-15T07:19:54;18.50;;;11.00;;
4563;SDS011;2294;51.818;8.484;2023-04-15T07:22:21;19.30;;;11.30;;
4563;SDS011;2294;51.818;8.484;2023-04-15T07:24:48;26.60;;;12.73;;
4563;SDS011;2294;51.818;8.484;2023-04-15T07:27:16;24.37;;;12.70;;
4563;SDS011;2294;51.818;8.484;2023-04-15T07:29:43;22.07;;;11.87;;
4563;SDS011;2294;51.818;8.484;2023-04-15T07:32:10;21.93;;;11.97;;
4563;SDS011;2294;51.818;8.484;2023-04-15T07:34:37;19.13;;;10.33;;
4563;SDS011;2294;51.818;8.484;2023-04-15T07:37:04;18.67;;;11.27;;
4563;SDS011;2294;51.818;8.484;2023-04-15T07:39:30;21.20;;;11.30;;
4563;SDS011;2294;51.818;8.484;2023-04-15T07:41:57;24.20;;;11.50;;
4563;SDS011;2294;51.818;8.484;2023-04-15T07:44:26;24.50;;;12.80;;
4563;SDS011;2294;51.818;8.484;2023-04-15T07:46:53;22.27;;;11.90;;
4563;SDS011;2294;51.818;8.484;2023-04-15T07:49:20;28.77;;;13.57;;
4563;SDS011;2294;51.818;8.484;2023-04-15T07:51:47;23.93;;;13.53;;
4563;SDS011;2294;51.818;8.484;2023-04-15T07:54:15;20.13;;;11.30;;
4563;SDS011;2294;51.818;8.484;2023-04-15T07:56:42;19.00;;;10.27;;
4563;SDS011;2294;51.818;8.484;2023-04-15T07:59:09;20.20;;;10.17;;
4563;SDS011;2294;51.818;8.484;2023-04-15T08:01:38;21.87;;;12.50;;
4563;SDS011;2294;51.818;8.484;2023-04-15T08:04:05;24.50;;;12.67;;
4563;SDS011;2294;51.818;8.484;2023-04-15T08:06:32;23.60;;;12.43;;
4563;SDS011;2294;51.818;8.484;2023-04-15T08:08:59;17.50;;;9.37;;
4563;SDS011;2294;51.818;8.484;2023-04-15T08:11:25;14.97;;;8.87;;
4563;SDS011;2294;51.818;8.484;2023-04-15T08:13:53;20.77;;;10.57;;
4563;SDS011;2294;51.818;8.484;2023-04-15T08:16:20;17.70;;;9.37;;
4563;SDS011;2294;51.818;8.484;2023-04-15T08:18:50;16.07;;;8.20;;
4563;SDS011;2294;51.818;8.484;2023-04-15T08:21:18;16.10;;;9.67;;
4563;SDS011;2294;51.818;8.484;2023-04-15T08:23:46;16.80;;;10.17;;
4563;SDS011;2294;51.818;8.484;2023-04-15T08:26:14;21.13;;;8.77;;
4563;SDS011;2294;51.818;8.484;2023-04-15T08:28:42;19.93;;;9.93;;
4563;SDS011;2294;51.818;8.484;2023-04-15T08:31:11;16.90;;;9.00;;
4563;SDS011;2294;51.818;8.484;2023-04-15T08:33:39;14.03;;;8.17;;
4563;SDS011;2294;51.818;8.484;2023-04-15T08:36:07;15.07;;;8.13;;
4563;SDS011;2294;51.818;8.484;2023-04-15T08:38:34;13.57;;;8.50;;
4563;SDS011;2294;51.818;8.484;2023-04-15T08:41:03;13.20;;;7.93;;
4563;SDS011;2294;51.818;8.484;2023-04-15T08:43:38;18.77;;;9.20;;
4563;SDS011;2294;51.818;8.484;2023-04-15T08:46:14;13.00;;;7.20;;
4563;SDS011;2294;51.818;8.484;2023-04-15T08:48:42;17.47;;;7.43;;
4563;SDS011;2294;51.818;8.484;2023-04-15T08:51:12;14.10;;;8.70;;
4563;SDS011;2294;51.818;8.484;2023-04-15T08:53:40;10.50;;;6.80;;
4563;SDS011;2294;51.818;8.484;2023-04-15T08:56:08;15.47;;;8.43;;
4563;SDS011;2294;51.818;8.484;2023-04-15T08:58:39;15.33;;;8.57;;
4563;SDS011;2294;51.818;8.484;2023-04-15T09:01:06;14.43;;;8.27;;
4563;SDS011;2294;51.818;8.484;2023-04-15T09:03:33;12.07;;;8.10;;
4563;SDS011;2294;51.818;8.484;2023-04-15T09:06:02;14.07;;;7.90;;
4563;SDS011;2294;51.818;8.484;2023-04-15T09:08:31;13.20;;;8.43;;
4563;SDS011;2294;51.818;8.484;2023-04-15T09:11:00;12.37;;;8.53;;
4563;SDS011;2294;51.818;8.484;2023-04-15T09:13:27;19.90;;;9.73;;
4563;SDS011;2294;51.818;8.484;2023-04-15T09:15:54;15.33;;;9.80;;
4563;SDS011;2294;51.818;8.484;2023-04-15T09:18:28;17.83;;;9.40;;
4563;SDS011;2294;51.818;8.484;2023-04-15T09:21:02;16.53;;;8.30;;
4563;SDS011;2294;51.818;8.484;2023-04-15T09:23:32;14.10;;;8.70;;
4563;SDS011;2294;51.818;8.484;2023-04-15T09:25:59;14.30;;;7.20;;
4563;SDS011;2294;51.818;8.484;2023-04-15T09:28:27;13.87;;;9.30;;
4563;SDS011;2294;51.818;8.484;2023-04-15T09:30:55;16.47;;;8.40;;
4563;SDS011;2294;51.818;8.484;2023-04-15T09:33:23;13.70;;;8.10;;
4563;SDS011;2294;51.818;8.484;2023-04-15T09:35:57;7.80;;;5.30;;
4563;SDS011;2294;51.818;8.484;2023-04-15T09:38:25;12.03;;;6.83;;
4563;SDS011;2294;51.818;8.484;2023-04-15T09:40:54;11.00;;;6.93;;
4563;SDS011;2294;51.818;8.484;2023-04-15T09:43:22;13.70;;;6.40;;
4563;SDS011;2294;51.818;8.484;2023-04-15T09:45:50;11.97;;;7.03;;
4563;SDS011;2294;51.818;8.484;2023-04-15T09:48:19;10.53;;;6.60;;
4563;SDS011;2294;51.818;8.484;2023-04-15T09:50:47;11.07;;;6.60;;
4563;SDS011;2294;51.818;8.484;2023-04-15T09:53:17;7.97;;;5.60;;
4563;SDS011;2294;51.818;8.484;2023-04-15T09:55:46;11.27;;;5.97;;
4563;SDS011;2294;51.818;8.484;2023-04-15T09:58:21;10.33;;;5.50;;
4563;SDS011;2294;51.818;8.484;2023-04-15T10:00:49;9.00;;;5.10;;
4563;SDS011;2294;51.818;8.484;2023-04-15T10:03:18;12.93;;;7.00;;
4563;SDS011;2294;51.818;8.484;2023-04-15T10:05:47;9.27;;;6.17;;
4563;SDS011;2294;51.818;8.484;2023-04-15T10:08:16;12.20;;;5.80;;
4563;SDS011;2294;51.818;8.484;2023-04-15T10:10:46;10.80;;;5.47;;
4563;SDS011;2294;51.818;8.484;2023-04-15T10:13:15;8.87;;;5.17;;
4563;SDS011;2294;51.818;8.484;2023-04-15T10:15:46;4.70;;;3.90;;
4563;SDS011;2294;51.818;8.484;2023-04-15T10:18:16;5.77;;;4.00;;
4563;SDS011;2294;51.818;8.484;2023-04-15T10:20:46;5.90;;;4.33;;
4563;SDS011;2294;51.818;8.484;2023-04-15T10:23:14;7.13;;;4.73;;
4563;SDS011;2294;51.818;8.484;2023-04-15T10:25:41;6.87;;;5.13;;
4563;SDS011;2294;51.818;8.484;2023-04-15T10:28:09;5.80;;;3.90;;
4563;SDS011;2294;51.818;8.484;2023-04-15T10:30:37;6.40;;;3.87;;
4563;SDS011;2294;51.818;8.484;2023-04-15T10:33:05;4.43;;;3.40;;
4563;SDS011;2294;51.818;8.484;2023-04-15T10:35:35;7.27;;;4.07;;
4563;SDS011;2294;51.818;8.484;2023-04-15T10:38:10;7.23;;;4.57;;
4563;SDS011;2294;51.818;8.484;2023-04-15T10:41:01;6.67;;;4.23;;
4563;SDS011;2294;51.818;8.484;2023-04-15T10:43:38;7.43;;;4.50;;
4563;SDS011;2294;51.818;8.484;2023-04-15T10:46:05;3.03;;;2.60;;
4563;SDS011;2294;51.818;8.484;2023-04-15T10:48:33;6.43;;;4.07;;
4563;SDS011;2294;51.818;8.484;2023-04-15T10:51:00;8.37;;;4.30;;
4563;SDS011;2294;51.818;8.484;2023-04-15T10:53:28;4.33;;;3.30;;
4563;SDS011;2294;51.818;8.484;2023-04-15T10:55:56;5.70;;;3.73;;
4563;SDS011;2294;51.818;8.484;2023-04-15T10:58:23;4.40;;;3.50;;
4563;SDS011;2294;51.818;8.484;2023-04-15T11:00:52;6.77;;;3.70;;
4563;SDS011;2294;51.818;8.484;2023-04-15T11:03:35;3.77;;;3.00;;
4563;SDS011;2294;51.818;8.484;2023-04-15T11:06:03;4.63;;;3.57;;
4563;SDS011;2294;51.818;8.484;2023-04-15T11:11:19;6.47;;;3.67;;
4563;SDS011;2294;51.818;8.484;2023-04-15T11:13:47;3.97;;;3.03;;
4563;SDS011;2294;51.818;8.484;2023-04-15T11:16:14;4.90;;;3.33;;
4563;SDS011;2294;51.818;8.484;2023-04-15T11:18:43;4.77;;;3.60;;
4563;SDS011;2294;51.818;8.484;2023-04-15T11:21:20;4.60;;;3.10;;
4563;SDS011;2294;51.818;8.484;2023-04-15T11:23:51;5.03;;;3.67;;
4563;SDS011;2294;51.818;8.484;2023-04-15T11:26:18;3.80;;;3.27;;
4563;SDS011;2294;51.818;8.484;2023-04-15T11:28:51;6.27;;;3.53;;
4563;SDS011;2294;51.818;8.484;2023-04-15T11:31:18;7.43;;;4.00;;
4563;SDS011;2294;51.818;8.484;2023-04-15T11:33:54;6.10;;;4.07;;
4563;SDS011;2294;51.818;8.484;2023-04-15T11:36:23;4.67;;;3.37;;
4563;SDS011;2294;51.818;8.484;2023-04-15T11:38:52;2.80;;;2.20;;
4563;SDS011;2294;51.818;8.484;2023-04-15T11:41:19;6.20;;;3.73;;
4563;SDS011;2294;51.818;8.484;2023-04-15T11:43:47;5.90;;;3.47;;
4563;SDS011;2294;51.818;8.484;2023-04-15T11:46:15;4.53;;;3.20;;
4563;SDS011;2294;51.818;8.484;2023-04-15T11:48:42;3.13;;;2.83;;
4563;SDS011;2294;51.818;8.484;2023-04-15T11:51:12;7.17;;;4.40;;
4563;SDS011;2294;51.818;8.484;2023-04-15T11:53:40;5.73;;;3.50;;
4563;SDS011;2294;51.818;8.484;2023-04-15T11:56:09;4.43;;;3.23;;
4563;SDS011;2294;51.818;8.484;2023-04-15T11:58:37;6.73;;;4.17;;
4563;SDS011;2294;51.818;8.484;2023-04-15T12:01:05;7.30;;;4.50;;
4563;SDS011;2294;51.818;8.484;2023-04-15T12:03:35;5.37;;;3.43;;
4563;SDS011;2294;51.818;8.484;2023-04-15T12:06:04;7.70;;;4.30;;
4563;SDS011;2294;51.818;8.484;2023-04-15T12:08:55;3.77;;;3.10;;
4563;SDS011;2294;51.818;8.484;2023-04-15T12:14:19;4.40;;;3.20;;
4563;SDS011;2294;51.818;8.484;2023-04-15T12:16:49;4.93;;;3.57;;
4563;SDS011;2294;51.818;8.484;2023-04-15T12:19:21;5.17;;;3.63;;
4563;SDS011;2294;51.818;8.484;2023-04-15T12:21:49;4.67;;;2.90;;
4563;SDS011;2294;51.818;8.484;2023-04-15T12:24:20;6.90;;;3.83;;
4563;SDS011;2294;51.818;8.484;2023-04-15T12:26:48;4.23;;;3.57;;
4563;SDS011;2294;51.818;8.484;2023-04-15T12:29:17;6.80;;;3.60;;
4563;SDS011;2294;51.818;8.484;2023-04-15T12:31:46;3.17;;;2.87;;
4563;SDS011;2294;51.818;8.484;2023-04-15T12:34:15;4.80;;;2.70;;
4563;SDS011;2294;51.818;8.484;2023-04-15T12:36:43;5.03;;;3.63;;
4563;SDS011;2294;51.818;8.484;2023-04-15T12:39:10;3.83;;;2.47;;
4563;SDS011;2294;51.818;8.484;2023-04-15T12:41:38;9.97;;;4.40;;
4563;SDS011;2294;51.818;8.484;2023-04-15T12:44:06;6.57;;;4.87;;
4563;SDS011;2294;51.818;8.484;2023-04-15T13:07:21;5.40;;;4.10;;
4563;SDS011;2294;51.818;8.484;2023-04-15T13:09:48;8.37;;;3.57;;
4563;SDS011;2294;51.818;8.484;2023-04-15T13:12:15;3.97;;;2.77;;
4563;SDS011;2294;51.818;8.484;2023-04-15T13:14:42;6.73;;;3.57;;
4563;SDS011;2294;51.818;8.484;2023-04-15T13:17:09;6.03;;;4.20;;
4563;SDS011;2294;51.818;8.484;2023-04-15T13:19:37;6.57;;;4.23;;
4563;SDS011;2294;51.818;8.484;2023-04-15T13:22:04;9.90;;;4.30;;
4563;SDS011;2294;51.818;8.484;2023-04-15T13:24:33;7.00;;;4.53;;
4563;SDS011;2294;51.818;8.484;2023-04-15T13:27:01;6.93;;;4.03;;
4563;SDS011;2294;51.818;8.484;2023-04-15T13:29:28;5.80;;;4.13;;
4563;SDS011;2294;51.818;8.484;2023-04-15T13:31:55;6.60;;;4.80;;
4563;SDS011;2294;51.818;8.484;2023-04-15T13:34:22;6.17;;;4.53;;
4563;SDS011;2294;51.818;8.484;2023-04-15T13:36:49;6.30;;;4.50;;
4563;SDS011;2294;51.818;8.484;2023-04-15T13:39:16;6.30;;;4.10;;
4563;SDS011;2294;51.818;8.484;2023-04-15T13:41:44;5.20;;;3.20;;
4563;SDS011;2294;51.818;8.484;2023-04-15T13:44:12;4.43;;;3.27;;
4563;SDS011;2294;51.818;8.484;2023-04-15T13:46:39;6.80;;;3.60;;
4563;SDS011;2294;51.818;8.484;2023-04-15T13:49:06;11.10;;;6.33;;
4563;SDS011;2294;51.818;8.484;2023-04-15T13:51:33;6.70;;;4.23;;
4563;SDS011;2294;51.818;8.484;2023-04-15T13:54:01;4.40;;;3.33;;
4563;SDS011;2294;51.818;8.484;2023-04-15T13:56:28;4.00;;;3.27;;
4563;SDS011;2294;51.818;8.484;2023-04-15T13:58:56;6.50;;;3.03;;
4563;SDS011;2294;51.818;8.484;2023-04-15T14:01:26;2.70;;;2.43;;
4563;SDS011;2294;51.818;8.484;2023-04-15T14:03:53;6.83;;;3.30;;
4563;SDS011;2294;51.818;8.484;2023-04-15T14:06:20;4.13;;;3.03;;
4563;SDS011;2294;51.818;8.484;2023-04-15T14:08:46;5.77;;;3.30;;
4563;SDS011;2294;51.818;8.484;2023-04-15T14:11:13;3.70;;;2.67;;
4563;SDS011;2294;51.818;8.484;2023-04-15T14:13:40;4.50;;;3.17;;
4563;SDS011;2294;51.818;8.484;2023-04-15T14:16:08;3.03;;;2.73;;
4563;SDS011;2294;51.818;8.484;2023-04-15T14:18:35;5.90;;;3.30;;
4563;SDS011;2294;51.818;8.484;2023-04-15T14:21:02;7.00;;;3.40;;
4563;SDS011;2294;51.818;8.484;2023-04-15T14:23:31;3.77;;;3.20;;
4563;SDS011;2294;51.818;8.484;2023-04-15T14:25:57;8.57;;;4.63;;
4563;SDS011;2294;51.818;8.484;2023-04-15T14:28:24;7.00;;;3.73;;
4563;SDS011;2294;51.818;8.484;2023-04-15T14:30:51;6.07;;;4.70;;
4563;SDS011;2294;51.818;8.484;2023-04-15T14:33:19;6.63;;;3.43;;
4563;SDS011;2294;51.818;8.484;2023-04-15T14:35:48;6.53;;;4.77;;
4563;SDS011;2294;51.818;8.484;2023-04-15T14:38:14;4.07;;;2.13;;
4563;SDS011;2294;51.818;8.484;2023-04-15T14:40:41;8.33;;;5.00;;
4563;SDS011;2294;51.818;8.484;2023-04-15T14:43:09;5.97;;;3.77;;
4563;SDS011;2294;51.818;8.484;2023-04-15T14:45:36;5.27;;;4.43;;
4563;SDS011;2294;51.818;8.484;2023-04-15T14:48:03;4.43;;;4.03;;
4563;SDS011;2294;51.818;8.484;2023-04-15T14:50:35;9.53;;;4.70;;
4563;SDS011;2294;51.818;8.484;2023-04-15T14:53:02;10.20;;;4.90;;
4563;SDS011;2294;51.818;8.484;2023-04-15T14:55:28;6.50;;;5.10;;
4563;SDS011;2294;51.818;8.484;2023-04-15T14:57:55;9.77;;;6.30;;
4563;SDS011;2294;51.818;8.484;2023-04-15T15:00:22;29.67;;;16.77;;
4563;SDS011;2294;51.818;8.484;2023-04-15T15:02:49;16.03;;;9.43;;
4563;SDS011;2294;51.818;8.484;2023-04-15T15:05:16;5.93;;;4.80;;
4563;SDS011;2294;51.818;8.484;2023-04-15T15:07:44;7.37;;;5.30;;
4563;SDS011;2294;51.818;8.484;2023-04-15T15:10:11;10.47;;;7.80;;
4563;SDS011;2294;51.818;8.484;2023-04-15T15:12:38;28.83;;;12.93;;
4563;SDS011;2294;51.818;8.484;2023-04-15T15:15:05;8.17;;;5.83;;
4563;SDS011;2294;51.818;8.484;2023-04-15T15:17:34;21.17;;;11.07;;
4563;SDS011;2294;51.818;8.484;2023-04-15T15:20:01;8.33;;;5.10;;
4563;SDS011;2294;51.818;8.484;2023-04-15T15:22:28;16.37;;;8.70;;
4563;SDS011;2294;51.818;8.484;2023-04-15T15:24:56;11.80;;;7.80;;
4563;SDS011;2294;51.818;8.484;2023-04-15T15:27:24;12.00;;;7.23;;
4563;SDS011;2294;51.818;8.484;2023-04-15T15:29:51;13.13;;;9.70;;
4563;SDS011;2294;51.818;8.484;2023-04-15T15:32:18;10.47;;;7.57;;
4563;SDS011;2294;51.818;8.484;2023-04-15T15:34:45;10.17;;;6.23;;
4563;SDS011;2294;51.818;8.484;2023-04-15T15:37:12;11.00;;;7.73;;